sensor_id;sensor_type;location;lat;lon;timestamp;pressure;altitude;pressure_sealevel;temperature;humidity
596;BME280;19946;49.306;11.350;2023-06-10T00:02:31;96150.94;;;15.67;100.00
596;BME280;19946;49.306;11.350;2023-06-10T00:05:31;96141.31;;;15.68;100.00
596;BME280;19946;49.306;11.350;2023-06-10T00:08:32;96105.22;;;15.24;100.00
596;BME280;19946;49.306;11.350;2023-06-10T00:11:33;96097.72;;;15.13;100.00
596;BME280;19946;49.306;11.350;2023-06-10T00:14:38;96139.72;;;15.43;100.00
596;BME280;19946;49.306;11.350;2023-06-10T00:17:39;96105.19;;;15.16;100.00
596;BME280;19946;49.306;11.350;2023-06-10T00:20:39;96062.22;;;14.96;100.00
596;BME280;19946;49.306;11.350;2023-06-10T00:23:40;96116.25;;;15.34;100.00
596;BME280;19946;49.306;11.350;2023-06-10T00:26:41;96141.66;;;15.49;100.00
596;BME280;19946;49.306;11.350;2023-06-10T00:29:42;96099.50;;;15.21;100.00
596;BME280;19946;49.306;11.350;2023-06-10T00:32:42;96101.28;;;15.20;100.00
596;BME280;19946;49.306;11.350;2023-06-10T00:35:42;96136.16;;;15.36;100.00
596;BME280;19946;49.306;11.350;2023-06-10T00:38:43;96139.75;;;15.18;100.00
596;BME280;19946;49.306;11.350;2023-06-10T00:41:43;96098.09;;;14.78;100.00
596;BME280;19946;49.306;11.350;2023-06-10T00:44:44;96134.91;;;14.83;100.00
596;BME280;19946;49.306;11.350;2023-06-10T00:47:44;96146.50;;;14.80;100.00
596;BME280;19946;49.306;11.350;2023-06-10T00:50:46;96150.88;;;14.47;100.00
596;BME280;19946;49.306;11.350;2023-06-10T00:53:46;96144.16;;;14.37;100.00
596;BME280;19946;49.306;11.350;2023-06-10T00:56:48;96136.50;;;14.35;100.00
596;BME280;19946;49.306;11.350;2023-06-10T00:59:50;96094.63;;;14.12;100.00
596;BME280;19946;49.306;11.350;2023-06-10T01:02:51;96095.44;;;14.21;100.00
596;BME280;19946;49.306;11.350;2023-06-10T01:06:06;96130.16;;;14.38;100.00
596;BME280;19946;49.306;11.350;2023-06-10T01:09:21;96131.59;;;14.24;100.00
596;BME280;19946;49.306;11.350;2023-06-10T01:12:47;96135.28;;;14.05;100.00
596;BME280;19946;49.306;11.350;2023-06-10T01:15:51;96122.72;;;14.01;100.00
596;BME280;19946;49.306;11.350;2023-06-10T01:18:52;96082.69;;;13.94;100.00
596;BME280;19946;49.306;11.350;2023-06-10T01:21:52;96130.34;;;14.44;100.00
596;BME280;19946;49.306;11.350;2023-06-10T01:24:55;96085.53;;;14.24;100.00
596;BME280;19946;49.306;11.350;2023-06-10T01:31:30;96110.66;;;14.58;100.00
596;BME280;19946;49.306;11.350;2023-06-10T01:34:35;96106.41;;;14.57;100.00
596;BME280;19946;49.306;11.350;2023-06-10T01:37:36;96126.94;;;14.68;100.00
596;BME280;19946;49.306;11.350;2023-06-10T01:40:39;96090.94;;;14.47;100.00
596;BME280;19946;49.306;11.350;2023-06-10T01:43:40;96121.22;;;14.73;100.00
596;BME280;19946;49.306;11.350;2023-06-10T01:46:41;96138.97;;;14.93;100.00
596;BME280;19946;49.306;11.350;2023-06-10T01:49:41;96095.47;;;14.86;100.00
596;BME280;19946;49.306;11.350;2023-06-10T01:52:41;96124.63;;;15.06;100.00
596;BME280;19946;49.306;11.350;2023-06-10T01:55:42;96102.81;;;14.82;100.00
596;BME280;19946;49.306;11.350;2023-06-10T01:58:42;96151.84;;;15.03;100.00
596;BME280;19946;49.306;11.350;2023-06-10T02:01:43;96066.50;;;14.65;100.00
596;BME280;19946;49.306;11.350;2023-06-10T02:04:44;96098.75;;;14.80;100.00
596;BME280;19946;49.306;11.350;2023-06-10T02:07:44;96112.91;;;14.85;100.00
596;BME280;19946;49.306;11.350;2023-06-10T02:10:45;96100.88;;;14.76;100.00
596;BME280;19946;49.306;11.350;2023-06-10T02:13:45;96095.81;;;14.83;100.00
596;BME280;19946;49.306;11.350;2023-06-10T02:16:45;96073.00;;;14.60;100.00
596;BME280;19946;49.306;11.350;2023-06-10T02:19:46;96142.88;;;15.06;100.00
596;BME280;19946;49.306;11.350;2023-06-10T02:22:52;96136.69;;;15.07;100.00
596;BME280;19946;49.306;11.350;2023-06-10T02:25:52;96102.00;;;14.82;100.00
596;BME280;19946;49.306;11.350;2023-06-10T02:28:53;96138.34;;;14.91;100.00
596;BME280;19946;49.306;11.350;2023-06-10T02:31:54;96135.22;;;14.72;100.00
596;BME280;19946;49.306;11.350;2023-06-10T02:34:54;96094.03;;;14.43;100.00
596;BME280;19946;49.306;11.350;2023-06-10T02:37:57;96091.25;;;14.44;100.00
596;BME280;19946;49.306;11.350;2023-06-10T02:40:57;96085.00;;;14.13;100.00
596;BME280;19946;49.306;11.350;2023-06-10T02:43:58;96135.41;;;13.96;100.00
596;BME280;19946;49.306;11.350;2023-06-10T02:46:58;96095.63;;;13.61;100.00
596;BME280;19946;49.306;11.350;2023-06-10T02:49:59;96080.28;;;13.50;100.00
596;BME280;19946;49.306;11.350;2023-06-10T02:53:00;96134.28;;;13.56;100.00
596;BME280;19946;49.306;11.350;2023-06-10T02:56:00;96097.31;;;13.44;100.00
596;BME280;19946;49.306;11.350;2023-06-10T02:59:00;96148.50;;;13.70;100.00
596;BME280;19946;49.306;11.350;2023-06-10T03:02:02;96060.97;;;13.19;100.00
596;BME280;19946;49.306;11.350;2023-06-10T03:05:08;96098.47;;;13.84;100.00
596;BME280;19946;49.306;11.350;2023-06-10T03:08:10;96105.47;;;14.00;100.00
596;BME280;19946;49.306;11.350;2023-06-10T03:11:14;96080.91;;;13.94;100.00
596;BME280;19946;49.306;11.350;2023-06-10T03:14:15;96095.38;;;13.88;100.00
596;BME280;19946;49.306;11.350;2023-06-10T03:17:15;96126.59;;;13.88;100.00
596;BME280;19946;49.306;11.350;2023-06-10T03:20:17;96116.38;;;13.53;100.00
596;BME280;19946;49.306;11.350;2023-06-10T03:23:19;96108.69;;;13.43;100.00
596;BME280;19946;49.306;11.350;2023-06-10T03:26:19;96097.31;;;13.44;100.00
596;BME280;19946;49.306;11.350;2023-06-10T03:29:21;96100.31;;;13.58;100.00
596;BME280;19946;49.306;11.350;2023-06-10T03:32:22;96150.31;;;13.77;100.00
596;BME280;19946;49.306;11.350;2023-06-10T03:35:22;96111.56;;;13.74;100.00
596;BME280;19946;49.306;11.350;2023-06-10T03:38:23;96110.31;;;13.86;100.00
596;BME280;19946;49.306;11.350;2023-06-10T03:41:23;96132.88;;;14.20;100.00
596;BME280;19946;49.306;11.350;2023-06-10T03:44:25;96136.69;;;14.42;100.00
596;BME280;19946;49.306;11.350;2023-06-10T03:47:26;96099.66;;;14.22;100.00
596;BME280;19946;49.306;11.350;2023-06-10T03:50:26;96100.66;;;14.29;100.00
596;BME280;19946;49.306;11.350;2023-06-10T03:53:27;96074.59;;;14.29;100.00
596;BME280;19946;49.306;11.350;2023-06-10T03:56:27;96158.03;;;14.94;100.00
596;BME280;19946;49.306;11.350;2023-06-10T03:59:29;96154.94;;;15.23;100.00
596;BME280;19946;49.306;11.350;2023-06-10T04:02:29;96142.97;;;15.37;100.00
596;BME280;19946;49.306;11.350;2023-06-10T04:05:29;96104.22;;;15.17;100.00
596;BME280;19946;49.306;11.350;2023-06-10T04:08:31;96142.66;;;15.56;100.00
596;BME280;19946;49.306;11.350;2023-06-10T04:11:33;96132.53;;;15.45;100.00
596;BME280;19946;49.306;11.350;2023-06-10T04:14:34;96126.00;;;15.49;100.00
596;BME280;19946;49.306;11.350;2023-06-10T04:17:37;96113.09;;;15.63;100.00
596;BME280;19946;49.306;11.350;2023-06-10T04:20:37;96136.50;;;16.19;100.00
596;BME280;19946;49.306;11.350;2023-06-10T04:23:38;96143.66;;;16.48;100.00
596;BME280;19946;49.306;11.350;2023-06-10T04:26:39;96103.47;;;16.49;100.00
596;BME280;19946;49.306;11.350;2023-06-10T04:29:40;96132.84;;;17.19;100.00
596;BME280;19946;49.306;11.350;2023-06-10T04:32:40;96078.56;;;16.61;100.00
596;BME280;19946;49.306;11.350;2023-06-10T04:35:46;96112.25;;;17.31;100.00
596;BME280;19946;49.306;11.350;2023-06-10T04:38:48;96117.72;;;17.73;100.00
596;BME280;19946;49.306;11.350;2023-06-10T04:41:48;96135.31;;;17.94;100.00
596;BME280;19946;49.306;11.350;2023-06-10T04:44:48;96150.16;;;18.59;100.00
596;BME280;19946;49.306;11.350;2023-06-10T04:47:49;96062.69;;;18.67;100.00
596;BME280;19946;49.306;11.350;2023-06-10T04:50:49;96103.91;;;18.15;100.00
596;BME280;19946;49.306;11.350;2023-06-10T04:53:50;96103.75;;;18.02;100.00
596;BME280;19946;49.306;11.350;2023-06-10T04:56:50;96078.91;;;17.98;100.00
596;BME280;19946;49.306;11.350;2023-06-10T04:59:51;96122.19;;;19.15;100.00
596;BME280;19946;49.306;11.350;2023-06-10T05:02:51;96144.78;;;20.13;100.00
596;BME280;19946;49.306;11.350;2023-06-10T05:05:52;96149.41;;;19.63;100.00
596;BME280;19946;49.306;11.350;2023-06-10T05:08:52;96145.88;;;20.32;100.00
596;BME280;19946;49.306;11.350;2023-06-10T05:11:52;96118.28;;;20.82;100.00
596;BME280;19946;49.306;11.350;2023-06-10T05:14:53;96117.63;;;20.47;100.00
596;BME280;19946;49.306;11.350;2023-06-10T05:17:56;96137.09;;;20.72;100.00
596;BME280;19946;49.306;11.350;2023-06-10T05:20:58;96148.41;;;20.60;100.00
596;BME280;19946;49.306;11.350;2023-06-10T05:23:58;96153.06;;;20.64;100.00
596;BME280;19946;49.306;11.350;2023-06-10T05:26:59;96156.50;;;20.58;100.00
596;BME280;19946;49.306;11.350;2023-06-10T05:29:59;96091.34;;;20.80;100.00
596;BME280;19946;49.306;11.350;2023-06-10T05:33:00;96119.28;;;20.74;100.00
596;BME280;19946;49.306;11.350;2023-06-10T05:36:00;96155.78;;;21.24;100.00
596;BME280;19946;49.306;11.350;2023-06-10T05:39:00;96132.66;;;20.93;100.00
596;BME280;19946;49.306;11.350;2023-06-10T05:42:01;96163.81;;;20.89;100.00
596;BME280;19946;49.306;11.350;2023-06-10T05:45:03;96090.94;;;21.03;100.00
596;BME280;19946;49.306;11.350;2023-06-10T05:48:03;96152.31;;;20.97;100.00
596;BME280;19946;49.306;11.350;2023-06-10T05:51:04;96137.94;;;21.26;100.00
596;BME280;19946;49.306;11.350;2023-06-10T05:54:04;96123.13;;;21.11;93.68
596;BME280;19946;49.306;11.350;2023-06-10T05:57:05;96167.09;;;21.04;96.94
596;BME280;19946;49.306;11.350;2023-06-10T06:00:06;96112.41;;;21.06;89.15
596;BME280;19946;49.306;11.350;2023-06-10T06:03:12;96151.94;;;21.20;83.81
596;BME280;19946;49.306;11.350;2023-06-10T06:06:13;96144.81;;;21.20;91.26
596;BME280;19946;49.306;11.350;2023-06-10T06:09:13;96168.44;;;20.61;100.00
596;BME280;19946;49.306;11.350;2023-06-10T06:12:13;96149.06;;;20.75;100.00
596;BME280;19946;49.306;11.350;2023-06-10T06:15:13;96149.09;;;21.21;89.24
596;BME280;19946;49.306;11.350;2023-06-10T06:18:14;96134.28;;;20.74;97.56
596;BME280;19946;49.306;11.350;2023-06-10T06:21:14;96118.69;;;20.92;94.51
596;BME280;19946;49.306;11.350;2023-06-10T06:24:15;96114.75;;;21.80;84.80
596;BME280;19946;49.306;11.350;2023-06-10T06:27:16;96120.78;;;22.45;69.35
596;BME280;19946;49.306;11.350;2023-06-10T06:30:16;96128.78;;;22.26;73.49
596;BME280;19946;49.306;11.350;2023-06-10T06:33:16;96151.88;;;21.72;84.01
596;BME280;19946;49.306;11.350;2023-06-10T06:36:17;96125.78;;;21.44;91.08
596;BME280;19946;49.306;11.350;2023-06-10T06:39:17;96157.41;;;21.38;93.25
596;BME280;19946;49.306;11.350;2023-06-10T06:42:17;96159.88;;;22.10;76.38
596;BME280;19946;49.306;11.350;2023-06-10T06:45:40;96160.06;;;22.98;71.03
596;BME280;19946;49.306;11.350;2023-06-10T06:48:41;96137.63;;;22.44;75.52
596;BME280;19946;49.306;11.350;2023-06-10T06:51:41;96103.78;;;22.66;69.71
596;BME280;19946;49.306;11.350;2023-06-10T06:54:41;96131.50;;;22.50;71.44
596;BME280;19946;49.306;11.350;2023-06-10T06:57:42;96160.81;;;22.29;73.32
596;BME280;19946;49.306;11.350;2023-06-10T07:00:42;96166.44;;;21.75;79.48
596;BME280;19946;49.306;11.350;2023-06-10T07:03:42;96120.72;;;21.23;77.23
596;BME280;19946;49.306;11.350;2023-06-10T07:06:42;96129.44;;;21.24;87.28
596;BME280;19946;49.306;11.350;2023-06-10T07:09:43;96172.72;;;22.45;71.85
596;BME280;19946;49.306;11.350;2023-06-10T07:12:43;96164.06;;;22.76;70.49
596;BME280;19946;49.306;11.350;2023-06-10T07:15:43;96161.88;;;22.21;68.58
596;BME280;19946;49.306;11.350;2023-06-10T07:18:44;96084.38;;;21.71;77.55
596;BME280;19946;49.306;11.350;2023-06-10T07:21:44;96177.88;;;22.78;70.36
596;BME280;19946;49.306;11.350;2023-06-10T07:24:44;96160.00;;;22.35;65.59
596;BME280;19946;49.306;11.350;2023-06-10T07:27:45;96109.44;;;21.94;66.33
596;BME280;19946;49.306;11.350;2023-06-10T07:30:45;96137.22;;;22.03;68.48
596;BME280;19946;49.306;11.350;2023-06-10T07:33:46;96146.25;;;21.36;74.05
596;BME280;19946;49.306;11.350;2023-06-10T07:36:47;96115.13;;;21.91;67.09
596;BME280;19946;49.306;11.350;2023-06-10T07:39:47;96091.81;;;22.32;66.28
596;BME280;19946;49.306;11.350;2023-06-10T07:42:47;96155.16;;;22.70;68.67
596;BME280;19946;49.306;11.350;2023-06-10T07:45:48;96137.16;;;23.17;62.58
596;BME280;19946;49.306;11.350;2023-06-10T07:48:48;96175.44;;;22.32;68.49
596;BME280;19946;49.306;11.350;2023-06-10T07:51:50;96160.66;;;23.00;63.41
596;BME280;19946;49.306;11.350;2023-06-10T07:54:50;96148.66;;;22.28;65.24
596;BME280;19946;49.306;11.350;2023-06-10T07:57:51;96114.41;;;23.16;60.46
596;BME280;19946;49.306;11.350;2023-06-10T08:00:51;96133.84;;;23.89;59.88
596;BME280;19946;49.306;11.350;2023-06-10T08:03:51;96166.03;;;24.23;57.72
596;BME280;19946;49.306;11.350;2023-06-10T08:06:52;96130.84;;;23.18;59.54
596;BME280;19946;49.306;11.350;2023-06-10T08:09:52;96127.28;;;23.55;57.56
596;BME280;19946;49.306;11.350;2023-06-10T08:12:52;96136.25;;;23.29;59.08
596;BME280;19946;49.306;11.350;2023-06-10T08:15:53;96124.66;;;23.49;57.62
596;BME280;19946;49.306;11.350;2023-06-10T08:18:55;96158.84;;;22.94;62.41
596;BME280;19946;49.306;11.350;2023-06-10T08:21:55;96135.53;;;22.91;58.78
596;BME280;19946;49.306;11.350;2023-06-10T08:24:55;96153.03;;;22.85;61.56
596;BME280;19946;49.306;11.350;2023-06-10T08:27:56;96149.44;;;23.79;57.48
596;BME280;19946;49.306;11.350;2023-06-10T08:30:57;96158.09;;;24.71;56.67
596;BME280;19946;49.306;11.350;2023-06-10T08:33:57;96158.81;;;23.75;55.58
596;BME280;19946;49.306;11.350;2023-06-10T08:36:58;96179.34;;;22.16;63.65
596;BME280;19946;49.306;11.350;2023-06-10T08:39:58;96162.63;;;23.05;61.31
596;BME280;19946;49.306;11.350;2023-06-10T08:43:08;96171.47;;;24.10;57.25
596;BME280;19946;49.306;11.350;2023-06-10T08:46:11;96171.78;;;24.98;54.67
596;BME280;19946;49.306;11.350;2023-06-10T08:49:18;96133.63;;;24.87;52.95
596;BME280;19946;49.306;11.350;2023-06-10T08:52:21;96173.13;;;25.30;52.82
596;BME280;19946;49.306;11.350;2023-06-10T08:55:29;96139.31;;;25.02;51.56
596;BME280;19946;49.306;11.350;2023-06-10T08:58:32;96166.09;;;25.48;53.23
596;BME280;19946;49.306;11.350;2023-06-10T09:01:33;96183.09;;;25.05;52.95
596;BME280;19946;49.306;11.350;2023-06-10T09:04:34;96175.28;;;25.33;52.08
596;BME280;19946;49.306;11.350;2023-06-10T09:07:36;96160.84;;;23.73;55.29
596;BME280;19946;49.306;11.350;2023-06-10T09:10:37;96165.53;;;23.53;58.60
596;BME280;19946;49.306;11.350;2023-06-10T09:13:38;96156.13;;;23.32;58.92
596;BME280;19946;49.306;11.350;2023-06-10T09:16:39;96167.09;;;24.52;56.13
596;BME280;19946;49.306;11.350;2023-06-10T09:19:40;96144.53;;;24.13;56.63
596;BME280;19946;49.306;11.350;2023-06-10T09:22:42;96171.09;;;24.24;55.90
596;BME280;19946;49.306;11.350;2023-06-10T09:25:42;96167.69;;;24.35;56.37
596;BME280;19946;49.306;11.350;2023-06-10T09:28:49;96167.91;;;24.34;55.47
596;BME280;19946;49.306;11.350;2023-06-10T09:31:50;96135.00;;;23.32;59.35
596;BME280;19946;49.306;11.350;2023-06-10T09:34:50;96139.78;;;23.42;57.93
596;BME280;19946;49.306;11.350;2023-06-10T09:37:58;96168.81;;;24.28;57.74
596;BME280;19946;49.306;11.350;2023-06-10T09:40:59;96145.22;;;24.74;57.12
596;BME280;19946;49.306;11.350;2023-06-10T09:44:01;96159.53;;;24.19;54.38
596;BME280;19946;49.306;11.350;2023-06-10T09:47:02;96161.38;;;24.55;54.51
596;BME280;19946;49.306;11.350;2023-06-10T09:50:03;96148.69;;;25.40;54.22
596;BME280;19946;49.306;11.350;2023-06-10T09:53:06;96137.91;;;26.16;49.79
596;BME280;19946;49.306;11.350;2023-06-10T09:56:06;96180.16;;;25.36;51.45
596;BME280;19946;49.306;11.350;2023-06-10T09:59:06;96124.94;;;25.92;51.58
596;BME280;19946;49.306;11.350;2023-06-10T10:02:13;96136.41;;;26.09;49.25
596;BME280;19946;49.306;11.350;2023-06-10T10:05:15;96142.22;;;23.68;53.73
596;BME280;19946;49.306;11.350;2023-06-10T10:08:16;96160.72;;;23.68;55.32
596;BME280;19946;49.306;11.350;2023-06-10T10:11:19;96144.84;;;24.71;55.85
596;BME280;19946;49.306;11.350;2023-06-10T10:14:19;96096.75;;;24.86;52.75
596;BME280;19946;49.306;11.350;2023-06-10T10:17:21;96129.72;;;23.32;57.79
596;BME280;19946;49.306;11.350;2023-06-10T10:20:33;96187.72;;;23.70;60.53
596;BME280;19946;49.306;11.350;2023-06-10T10:23:42;96155.63;;;25.76;55.64
596;BME280;19946;49.306;11.350;2023-06-10T10:26:47;96135.25;;;26.28;53.86
596;BME280;19946;49.306;11.350;2023-06-10T10:29:52;96156.53;;;26.05;51.66
596;BME280;19946;49.306;11.350;2023-06-10T10:33:08;96135.47;;;26.38;53.32
596;BME280;19946;49.306;11.350;2023-06-10T10:36:10;96129.22;;;25.81;50.07
596;BME280;19946;49.306;11.350;2023-06-10T10:39:11;96152.44;;;26.82;50.43
596;BME280;19946;49.306;11.350;2023-06-10T10:42:12;96138.63;;;26.00;50.00
596;BME280;19946;49.306;11.350;2023-06-10T10:45:13;96183.53;;;24.42;53.56
596;BME280;19946;49.306;11.350;2023-06-10T10:48:14;96165.97;;;24.29;56.14
596;BME280;19946;49.306;11.350;2023-06-10T10:51:15;96172.94;;;25.02;54.14
596;BME280;19946;49.306;11.350;2023-06-10T10:54:15;96179.41;;;25.06;53.46
596;BME280;19946;49.306;11.350;2023-06-10T10:57:18;96104.53;;;25.45;52.14
596;BME280;19946;49.306;11.350;2023-06-10T11:00:28;96171.50;;;23.67;56.49
596;BME280;19946;49.306;11.350;2023-06-10T11:03:29;96134.13;;;23.81;55.81
596;BME280;19946;49.306;11.350;2023-06-10T11:06:32;96152.84;;;24.53;55.54
596;BME280;19946;49.306;11.350;2023-06-10T11:09:33;96129.34;;;24.26;53.20
596;BME280;19946;49.306;11.350;2023-06-10T11:15:47;96105.66;;;23.15;57.27
596;BME280;19946;49.306;11.350;2023-06-10T11:18:53;96162.03;;;24.50;56.72
596;BME280;19946;49.306;11.350;2023-06-10T11:22:01;96173.53;;;25.04;53.58
596;BME280;19946;49.306;11.350;2023-06-10T11:25:01;96154.03;;;24.68;52.99
596;BME280;19946;49.306;11.350;2023-06-10T11:28:02;96136.91;;;24.23;53.66
596;BME280;19946;49.306;11.350;2023-06-10T11:31:02;96151.44;;;25.57;50.25
596;BME280;19946;49.306;11.350;2023-06-10T11:34:04;96124.47;;;25.60;49.76
596;BME280;19946;49.306;11.350;2023-06-10T11:37:06;96133.84;;;26.66;47.96
596;BME280;19946;49.306;11.350;2023-06-10T11:40:07;96103.00;;;27.82;44.02
596;BME280;19946;49.306;11.350;2023-06-10T11:43:09;96119.56;;;26.55;45.81
596;BME280;19946;49.306;11.350;2023-06-10T11:46:10;96093.59;;;26.57;44.44
596;BME280;19946;49.306;11.350;2023-06-10T11:49:11;96095.69;;;27.94;43.31
596;BME280;19946;49.306;11.350;2023-06-10T11:52:12;96107.72;;;27.41;43.99
596;BME280;19946;49.306;11.350;2023-06-10T11:55:12;96103.88;;;27.32;44.79
596;BME280;19946;49.306;11.350;2023-06-10T11:58:17;96080.44;;;25.82;45.91
596;BME280;19946;49.306;11.350;2023-06-10T12:01:21;96075.91;;;24.36;49.73
596;BME280;19946;49.306;11.350;2023-06-10T12:04:22;96105.03;;;25.19;48.43
596;BME280;19946;49.306;11.350;2023-06-10T12:07:23;96121.25;;;25.81;47.90
596;BME280;19946;49.306;11.350;2023-06-10T12:10:23;96094.81;;;25.86;47.61
596;BME280;19946;49.306;11.350;2023-06-10T12:13:27;96103.41;;;24.17;49.43
596;BME280;19946;49.306;11.350;2023-06-10T12:16:28;96112.75;;;24.19;50.42
596;BME280;19946;49.306;11.350;2023-06-10T12:19:28;96120.44;;;25.45;47.42
596;BME280;19946;49.306;11.350;2023-06-10T12:22:41;96108.00;;;25.58;45.49
596;BME280;19946;49.306;11.350;2023-06-10T12:25:53;96133.81;;;25.39;47.68
596;BME280;19946;49.306;11.350;2023-06-10T12:28:53;96122.25;;;25.10;49.32
596;BME280;19946;49.306;11.350;2023-06-10T12:31:55;96124.19;;;26.08;47.91
596;BME280;19946;49.306;11.350;2023-06-10T12:35:03;96127.22;;;27.64;45.97
596;BME280;19946;49.306;11.350;2023-06-10T12:38:06;96117.34;;;27.25;45.62
596;BME280;19946;49.306;11.350;2023-06-10T12:41:06;96083.63;;;27.65;43.91
596;BME280;19946;49.306;11.350;2023-06-10T12:44:07;96074.09;;;26.23;46.48
596;BME280;19946;49.306;11.350;2023-06-10T12:47:11;96105.00;;;25.54;46.32
596;BME280;19946;49.306;11.350;2023-06-10T12:50:14;96125.63;;;24.46;49.14
596;BME280;19946;49.306;11.350;2023-06-10T12:53:14;96126.63;;;24.15;49.81
596;BME280;19946;49.306;11.350;2023-06-10T12:56:14;96145.28;;;24.01;51.38
596;BME280;19946;49.306;11.350;2023-06-10T12:59:15;96127.66;;;24.14;50.87
596;BME280;19946;49.306;11.350;2023-06-10T13:02:16;96136.63;;;23.94;52.02
596;BME280;19946;49.306;11.350;2023-06-10T13:05:17;96095.81;;;23.47;52.65
596;BME280;19946;49.306;11.350;2023-06-10T13:08:17;96088.75;;;23.66;54.23
596;BME280;19946;49.306;11.350;2023-06-10T13:11:18;96105.56;;;24.98;50.78
596;BME280;19946;49.306;11.350;2023-06-10T13:14:18;96034.72;;;25.05;50.62
596;BME280;19946;49.306;11.350;2023-06-10T13:17:18;96119.50;;;25.98;49.27
596;BME280;19946;49.306;11.350;2023-06-10T13:20:20;96114.81;;;26.29;48.92
596;BME280;19946;49.306;11.350;2023-06-10T13:23:20;96094.13;;;26.02;49.24
596;BME280;19946;49.306;11.350;2023-06-10T13:26:21;96117.09;;;24.73;51.97
596;BME280;19946;49.306;11.350;2023-06-10T13:29:22;96082.81;;;24.19;54.34
596;BME280;19946;49.306;11.350;2023-06-10T13:32:22;96140.00;;;23.83;55.94
596;BME280;19946;49.306;11.350;2023-06-10T13:35:22;96107.75;;;24.29;55.79
596;BME280;19946;49.306;11.350;2023-06-10T13:38:23;96084.38;;;25.21;55.83
596;BME280;19946;49.306;11.350;2023-06-10T13:41:23;96110.22;;;25.72;52.64
596;BME280;19946;49.306;11.350;2023-06-10T13:44:24;96098.38;;;26.43;52.05
596;BME280;19946;49.306;11.350;2023-06-10T13:47:25;96074.41;;;26.27;49.46
596;BME280;19946;49.306;11.350;2023-06-10T13:50:25;96062.00;;;26.15;51.17
596;BME280;19946;49.306;11.350;2023-06-10T13:53:25;96090.41;;;26.03;50.99
596;BME280;19946;49.306;11.350;2023-06-10T13:56:26;96051.09;;;25.25;51.74
596;BME280;19946;49.306;11.350;2023-06-10T13:59:26;96121.03;;;24.05;68.98
596;BME280;19946;49.306;11.350;2023-06-10T14:02:27;96103.69;;;23.11;100.00
596;BME280;19946;49.306;11.350;2023-06-10T14:05:27;96088.03;;;22.60;100.00
596;BME280;19946;49.306;11.350;2023-06-10T14:08:27;96076.88;;;22.19;100.00
596;BME280;19946;49.306;11.350;2023-06-10T14:11:28;96102.63;;;21.73;100.00
596;BME280;19946;49.306;11.350;2023-06-10T14:14:28;96110.59;;;20.81;100.00
596;BME280;19946;49.306;11.350;2023-06-10T14:17:28;96113.16;;;20.48;100.00
596;BME280;19946;49.306;11.350;2023-06-10T14:20:29;96138.44;;;19.94;100.00
596;BME280;19946;49.306;11.350;2023-06-10T14:23:31;96080.34;;;19.35;100.00
596;BME280;19946;49.306;11.350;2023-06-10T14:26:31;96128.16;;;19.99;100.00
596;BME280;19946;49.306;11.350;2023-06-10T14:29:33;96110.78;;;20.05;100.00
596;BME280;19946;49.306;11.350;2023-06-10T14:32:33;96095.56;;;19.87;100.00
596;BME280;19946;49.306;11.350;2023-06-10T14:35:34;96112.00;;;19.61;100.00
596;BME280;19946;49.306;11.350;2023-06-10T14:38:34;96107.13;;;19.58;100.00
596;BME280;19946;49.306;11.350;2023-06-10T14:41:34;96110.06;;;19.77;100.00
596;BME280;19946;49.306;11.350;2023-06-10T14:44:34;96113.16;;;19.93;100.00
596;BME280;19946;49.306;11.350;2023-06-10T14:47:35;96125.03;;;20.30;100.00
596;BME280;19946;49.306;11.350;2023-06-10T14:50:35;96089.50;;;19.87;100.00
596;BME280;19946;49.306;11.350;2023-06-10T14:53:37;96061.19;;;20.43;100.00
596;BME280;19946;49.306;11.350;2023-06-10T14:56:37;96103.44;;;21.67;100.00
596;BME280;19946;49.306;11.350;2023-06-10T14:59:37;96122.75;;;22.12;100.00
596;BME280;19946;49.306;11.350;2023-06-10T15:02:38;96129.31;;;22.03;100.00
596;BME280;19946;49.306;11.350;2023-06-10T15:05:38;96096.81;;;22.09;100.00
596;BME280;19946;49.306;11.350;2023-06-10T15:08:38;96103.09;;;22.08;100.00
596;BME280;19946;49.306;11.350;2023-06-10T15:11:39;96127.84;;;22.51;100.00
596;BME280;19946;49.306;11.350;2023-06-10T15:14:39;96088.84;;;23.35;100.00
596;BME280;19946;49.306;11.350;2023-06-10T15:17:39;96110.91;;;24.20;99.24
596;BME280;19946;49.306;11.350;2023-06-10T15:20:40;96092.34;;;23.72;90.02
596;BME280;19946;49.306;11.350;2023-06-10T15:23:40;96064.28;;;23.89;76.79
596;BME280;19946;49.306;11.350;2023-06-10T15:26:40;96101.56;;;24.65;72.10
596;BME280;19946;49.306;11.350;2023-06-10T15:29:41;96126.31;;;24.71;57.52
596;BME280;19946;49.306;11.350;2023-06-10T15:32:41;96123.66;;;25.13;58.27
596;BME280;19946;49.306;11.350;2023-06-10T15:35:41;96117.41;;;24.95;58.30
596;BME280;19946;49.306;11.350;2023-06-10T15:38:42;96084.84;;;25.18;54.31
596;BME280;19946;49.306;11.350;2023-06-10T15:41:42;96086.34;;;25.49;54.99
596;BME280;19946;49.306;11.350;2023-06-10T15:44:42;96090.25;;;25.23;55.16
596;BME280;19946;49.306;11.350;2023-06-10T15:47:43;96108.00;;;24.69;59.05
596;BME280;19946;49.306;11.350;2023-06-10T15:50:44;96087.25;;;24.07;59.20
596;BME280;19946;49.306;11.350;2023-06-10T15:53:45;96080.84;;;23.41;65.79
596;BME280;19946;49.306;11.350;2023-06-10T15:56:46;96090.50;;;23.11;75.26
596;BME280;19946;49.306;11.350;2023-06-10T15:59:46;96097.38;;;22.87;72.14
596;BME280;19946;49.306;11.350;2023-06-10T16:02:47;96114.84;;;22.88;70.77
596;BME280;19946;49.306;11.350;2023-06-10T16:05:47;96120.03;;;23.01;72.59
596;BME280;19946;49.306;11.350;2023-06-10T16:08:47;96073.84;;;22.85;71.16
596;BME280;19946;49.306;11.350;2023-06-10T16:11:48;96098.13;;;22.94;69.38
596;BME280;19946;49.306;11.350;2023-06-10T16:14:48;96114.28;;;23.04;63.87